Time;durP1;ratioP1;P1;durP2;ratioP2;P2;SDS_P1;SDS_P2;PMS_P1;PMS_P2;Temp;Humidity;BMP_temperature;BMP_pressure;BME280_temperature;BME280_humidity;BME280_pressure;Samples;Min_cycle;Max_cycle;Signal;HPM_P1;HPM_P2
2022/08/22 05:24:47;;;;;;;3.67;3.03;;;;;;;18.73;100.00;99622.06;6518799;26;20093;-87
2022/08/22 05:28:06;;;;;;;5.45;3.55;;;;;;;18.82;100.00;99630.63;6581294;27;34488;-87
2022/08/22 05:31:14;;;;;;;3.80;3.40;;;;;;;18.86;100.00;99629.03;6581415;27;34012;-87
2022/08/22 05:34:25;;;;;;;4.00;2.95;;;;;;;18.89;100.00;99642.19;6570199;27;32498;-84
2022/08/22 05:37:40;;;;;;;4.25;3.30;;;;;;;18.94;100.00;99644.16;6567423;27;33414;-84
2022/08/22 05:40:51;;;;;;;3.15;2.85;;;;;;;19.04;100.00;99633.38;6579125;27;34067;-84
2022/08/22 05:43:54;;;;;;;3.92;3.05;;;;;;;19.08;100.00;99640.00;6578280;27;34004;-83
2022/08/22 05:47:21;;;;;;;3.45;3.15;;;;;;;19.13;100.00;99639.22;6578271;27;33132;-84
2022/08/22 05:50:37;;;;;;;3.33;2.90;;;;;;;19.26;100.00;99641.59;6578912;27;34131;-84
2022/08/22 05:53:46;;;;;;;3.55;3.25;;;;;;;19.34;100.00;99646.62;6579371;27;33561;-84
2022/08/22 05:56:56;;;;;;;3.72;3.30;;;;;;;19.43;100.00;99649.75;6578856;27;33572;-84
2022/08/22 06:00:11;;;;;;;5.60;3.42;;;;;;;19.54;100.00;99654.25;6578464;27;33602;-83
2022/08/22 06:03:25;;;;;;;2.95;2.65;;;;;;;19.66;100.00;99657.69;6559073;27;33875;-88
2022/08/22 06:06:33;;;;;;;5.30;3.28;;;;;;;19.73;100.00;99662.97;6578644;27;34335;-83
2022/08/22 06:09:44;;;;;;;5.55;3.58;;;;;;;19.81;100.00;99667.16;6559135;27;32906;-83
2022/08/22 06:12:50;;;;;;;3.78;3.17;;;;;;;19.86;100.00;99670.78;6578567;27;33147;-84
2022/08/22 06:16:04;;;;;;;4.47;3.37;;;;;;;20.02;100.00;99663.56;6578829;27;34448;-85
2022/08/22 06:19:08;;;;;;;3.28;3.00;;;;;;;20.14;100.00;99672.41;6558881;27;34234;-84
2022/08/22 06:22:35;;;;;;;4.12;3.28;;;;;;;20.28;100.00;99672.84;6578941;27;33339;-84
2022/08/22 06:25:42;;;;;;;6.15;3.80;;;;;;;20.36;100.00;99663.34;6578993;27;33008;-84
2022/08/22 06:28:49;;;;;;;6.62;3.60;;;;;;;20.34;100.00;99660.03;6578982;27;33774;-84
2022/08/22 06:32:02;;;;;;;6.30;3.90;;;;;;;20.49;100.00;99671.09;6558262;27;32042;-84
2022/08/22 06:35:14;;;;;;;6.50;4.22;;;;;;;20.65;100.00;99668.50;6578924;27;34926;-85
2022/08/22 06:38:19;;;;;;;6.28;3.83;;;;;;;20.75;100.00;99668.59;6578857;27;33323;-84
2022/08/22 06:41:26;;;;;;;4.28;3.80;;;;;;;20.80;100.00;99669.47;6580722;27;33208;-84
2022/08/22 06:44:34;;;;;;;5.75;4.12;;;;;;;20.92;100.00;99676.66;6583990;27;34320;-84
2022/08/22 06:47:45;;;;;;;4.47;3.60;;;;;;;21.06;100.00;99673.19;6561573;27;33736;-84
2022/08/22 06:50:56;;;;;;;4.70;4.10;;;;;;;21.12;100.00;99682.28;6566824;27;34531;-85
2022/08/22 06:54:04;;;;;;;4.62;4.12;;;;;;;21.20;100.00;99678.19;6565790;27;32633;-84
2022/08/22 06:57:23;;;;;;;5.72;4.50;;;;;;;21.27;100.00;99679.63;6564587;27;33208;-88
2022/08/22 07:00:27;;;;;;;8.30;4.28;;;;;;;21.29;100.00;99677.44;6587562;27;33266;-84
2022/08/22 07:03:34;;;;;;;8.77;4.93;;;;;;;21.66;100.00;99671.06;6581945;27;34392;-84
2022/08/22 07:06:48;;;;;;;6.75;4.20;;;;;;;21.83;100.00;99668.09;6559240;27;32142;-85
2022/08/22 07:09:54;;;;;;;7.03;4.07;;;;;;;21.84;100.00;99674.41;6558612;27;33128;-85
2022/08/22 07:12:57;;;;;;;9.30;5.80;;;;;;;21.88;100.00;99672.75;6578868;27;33573;-84
2022/08/22 07:16:05;;;;;;;6.57;4.15;;;;;;;21.74;100.00;99680.69;6578435;27;33297;-85
2022/08/22 07:19:21;;;;;;;4.50;4.10;;;;;;;21.92;100.00;99679.38;6558293;27;33661;-85
2022/08/22 07:22:28;;;;;;;5.00;4.10;;;;;;;22.13;100.00;99682.97;6578853;27;34284;-84
2022/08/22 07:25:44;;;;;;;4.35;3.67;;;;;;;22.30;99.81;99688.25;6579276;27;33677;-84
2022/08/22 07:28:59;;;;;;;8.23;3.87;;;;;;;22.29;99.31;99694.81;6562316;27;31924;-85
2022/08/22 07:32:15;;;;;;;3.90;3.30;;;;;;;22.06;99.66;99685.16;6580129;27;33948;-84
2022/08/22 07:35:23;;;;;;;6.15;4.22;;;;;;;21.94;100.00;99690.88;6561835;27;32426;-84
2022/08/22 07:38:33;;;;;;;5.55;3.83;;;;;;;21.94;100.00;99683.47;6584131;27;34298;-85
2022/08/22 07:41:53;;;;;;;7.82;4.45;;;;;;;22.12;100.00;99686.81;6565534;27;32739;-85
2022/08/22 07:45:14;;;;;;;6.97;3.92;;;;;;;22.33;98.67;99694.00;6581974;27;33165;-88
2022/08/22 07:48:28;;;;;;;6.78;4.57;;;;;;;22.31;99.62;99695.38;6581877;27;34183;-86
2022/08/22 07:51:42;;;;;;;6.80;4.30;;;;;;;22.47;96.92;99691.56;6562608;27;32143;-85
2022/08/22 07:54:55;;;;;;;7.18;4.07;;;;;;;22.62;97.48;99693.47;6585244;27;33882;-86
2022/08/22 07:58:04;;;;;;;8.68;4.80;;;;;;;22.70;96.30;99692.94;6593169;27;33920;-86
2022/08/22 08:01:16;;;;;;;7.07;4.53;;;;;;;23.12;95.09;99697.31;6582803;27;33166;-86
2022/08/22 08:04:24;;;;;;;61.05;12.07;;;;;;;23.57;92.63;99700.19;6560692;27;31860;-86
2022/08/22 08:07:29;;;;;;;5.62;4.40;;;;;;;23.56;91.11;99701.31;6578184;27;33604;-87
2022/08/22 08:10:38;;;;;;;7.70;4.28;;;;;;;23.60;91.13;99697.72;6578640;27;33133;-85
2022/08/22 08:13:44;;;;;;;6.20;4.70;;;;;;;23.67;91.88;99698.25;6558594;27;32532;-85
2022/08/22 08:16:47;;;;;;;7.62;4.32;;;;;;;23.53;90.48;99706.25;6579093;27;33932;-85
2022/08/22 08:19:52;;;;;;;7.60;4.43;;;;;;;23.61;91.71;99706.81;6582214;27;33833;-85
2022/08/22 08:22:58;;;;;;;27.00;6.50;;;;;;;23.95;89.59;99698.69;6562615;27;32518;-86
2022/08/22 08:26:23;;;;;;;6.37;4.47;;;;;;;24.20;88.67;99701.28;6579254;27;33457;-85
2022/08/22 08:29:27;;;;;;;5.85;4.20;;;;;;;23.99;87.67;99699.78;6560309;27;31929;-85
2022/08/22 08:32:34;;;;;;;8.30;4.68;;;;;;;23.50;89.75;99711.50;6586003;27;33250;-86
2022/08/22 08:35:41;;;;;;;9.15;4.75;;;;;;;23.42;90.36;99698.34;6581439;27;34839;-86
2022/08/22 08:39:33;;;;;;;88.30;14.32;;;;;;;23.43;91.63;99703.56;6560747;27;33058;-85
2022/08/22 08:46:49;;;;;;;20.27;6.87;;;;;;;23.60;89.98;99702.38;6560038;27;32028;-85
2022/08/22 08:50:22;;;;;;;9.20;4.82;;;;;;;23.73;90.61;99696.34;6559768;27;32572;-86
2022/08/22 08:54:03;;;;;;;5.82;4.55;;;;;;;23.66;90.46;99702.06;6560114;27;32714;-85
2022/08/22 08:57:33;;;;;;;6.72;4.78;;;;;;;23.83;84.77;99693.53;6579913;27;34172;-88
2022/08/22 09:00:56;;;;;;;6.75;4.80;;;;;;;24.13;84.96;99698.06;6559604;27;32043;-86
2022/08/22 09:04:16;;;;;;;7.75;4.75;;;;;;;24.25;87.35;99696.84;6580802;27;33883;-85
2022/08/22 09:07:50;;;;;;;8.32;5.22;;;;;;;24.19;85.27;99705.16;6559944;27;33637;-85
2022/08/22 09:11:11;;;;;;;7.25;4.53;;;;;;;24.06;87.86;99702.22;6580432;27;33637;-84
2022/08/22 09:14:36;;;;;;;10.30;5.60;;;;;;;23.92;88.39;99700.06;6579813;27;34495;-86
2022/08/22 09:17:45;;;;;;;27.58;6.40;;;;;;;23.86;88.07;99692.97;6580049;27;33757;-90
2022/08/22 09:21:01;;;;;;;11.65;5.68;;;;;;;23.88;85.43;99695.44;6578365;27;33514;-85
2022/08/22 09:24:34;;;;;;;9.55;4.93;;;;;;;24.23;86.02;99688.09;6579430;27;33214;-86
2022/08/22 09:28:00;;;;;;;7.87;4.57;;;;;;;25.06;83.59;99684.38;6559269;27;32748;-84
2022/08/22 09:31:19;;;;;;;8.20;4.70;;;;;;;25.31;80.57;99686.91;6565373;27;34598;-85
2022/08/22 09:34:52;;;;;;;128.35;18.87;;;;;;;25.26;74.72;99686.97;6579946;27;34997;-85
2022/08/22 09:38:17;;;;;;;10.45;4.62;;;;;;;25.25;76.31;99688.09;6564609;27;32302;-84
2022/08/22 09:41:52;;;;;;;11.05;5.20;;;;;;;25.10;75.86;99685.47;6580438;27;33476;-85
2022/08/22 09:45:18;;;;;;;7.72;4.43;;;;;;;25.20;75.59;99690.06;6485590;27;35033;-86
2022/08/22 09:48:30;;;;;;;6.43;4.40;;;;;;;24.91;76.94;99696.37;6569436;27;33086;-84
2022/08/22 09:52:13;;;;;;;7.28;5.03;;;;;;;24.53;77.56;99692.56;6582666;27;33934;-85
2022/08/22 09:55:44;;;;;;;12.85;4.95;;;;;;;24.25;80.33;99697.72;6578972;27;33579;-85
2022/08/22 09:59:16;;;;;;;3.95;3.33;;;;;;;24.01;80.36;99697.56;6579472;27;33653;-85
2022/08/22 10:02:39;;;;;;;5.93;3.87;;;;;;;23.98;78.43;99698.97;6578524;27;33560;-89
2022/08/22 10:06:01;;;;;;;5.15;3.50;;;;;;;24.09;77.49;99698.91;6559341;27;32308;-85
2022/08/22 10:09:20;;;;;;;5.47;3.53;;;;;;;24.27;77.08;99702.91;6558228;27;31966;-84
2022/08/22 10:12:49;;;;;;;5.25;3.65;;;;;;;24.22;78.89;99703.78;6582220;27;33551;-84
2022/08/22 10:16:18;;;;;;;6.30;4.00;;;;;;;24.24;78.85;99708.97;6581333;27;33125;-85
2022/08/22 10:19:32;;;;;;;6.28;3.42;;;;;;;24.23;79.67;99710.09;6558098;27;32921;-85
2022/08/22 10:22:40;;;;;;;4.70;3.92;;;;;;;24.24;81.79;99711.72;6579408;27;33795;-84
2022/08/22 10:26:08;;;;;;;22.87;6.07;;;;;;;24.45;80.88;99716.00;6558765;27;32400;-85
2022/08/22 10:29:47;;;;;;;5.43;3.80;;;;;;;24.75;80.25;99716.91;6578910;27;34220;-85
2022/08/22 10:33:03;;;;;;;5.60;3.97;;;;;;;24.83;76.78;99714.34;6583527;27;33802;-85
2022/08/22 10:36:22;;;;;;;5.50;3.50;;;;;;;25.06;76.70;99710.00;6558955;27;32943;-84
2022/08/22 10:39:40;;;;;;;4.35;3.33;;;;;;;24.65;74.22;99710.34;6558276;27;32368;-84
2022/08/22 10:43:17;;;;;;;5.60;3.40;;;;;;;24.90;74.26;99708.50;6579328;27;33037;-84
2022/08/22 10:46:33;;;;;;;4.22;2.97;;;;;;;25.08;71.94;99705.03;6578273;27;32787;-83
2022/08/22 10:49:45;;;;;;;4.05;3.00;;;;;;;25.58;70.24;99713.06;6579212;27;34013;-85
2022/08/22 10:53:34;;;;;;;3.58;3.22;;;;;;;26.15;66.13;99708.50;6578634;27;33505;-85
2022/08/22 10:56:49;;;;;;;7.60;3.85;;;;;;;26.48;65.22;99704.97;6541778;27;33169;-84
2022/08/22 11:00:31;;;;;;;4.30;3.40;;;;;;;26.87;64.73;99697.16;6590419;27;33813;-85
2022/08/22 11:03:55;;;;;;;6.35;3.85;;;;;;;27.06;62.22;99705.41;6582269;27;34134;-84
2022/08/22 11:07:11;;;;;;;6.65;3.60;;;;;;;27.21;64.61;99700.75;6585741;27;33597;-84
2022/08/22 11:10:26;;;;;;;4.00;3.50;;;;;;;27.07;62.13;99695.97;6581005;27;33694;-84
2022/08/22 11:13:32;;;;;;;8.45;3.85;;;;;;;26.87;63.80;99697.16;6561678;27;31964;-84
2022/08/22 11:16:55;;;;;;;3.75;3.30;;;;;;;26.93;62.64;99695.13;6579494;27;33307;-84
2022/08/22 11:20:27;;;;;;;4.68;3.75;;;;;;;27.09;64.09;99695.69;6588061;27;33216;-84
2022/08/22 11:23:47;;;;;;;4.47;3.90;;;;;;;27.36;63.37;99697.69;6547062;27;33726;-85
2022/08/22 11:27:13;;;;;;;4.68;3.85;;;;;;;26.84;65.28;99688.66;6586970;27;33845;-85
2022/08/22 11:30:42;;;;;;;5.37;3.80;;;;;;;26.90;62.36;99693.78;6581105;27;34265;-85
2022/08/22 11:34:11;;;;;;;5.72;3.62;;;;;;;27.14;62.07;99693.66;6528416;27;34248;-84
2022/08/22 11:37:14;;;;;;;4.63;3.90;;;;;;;27.23;61.91;99692.97;6559266;27;32586;-85
2022/08/22 11:40:36;;;;;;;5.78;3.80;;;;;;;27.26;62.14;99686.81;6559663;27;32058;-85
2022/08/22 11:43:58;;;;;;;6.55;3.97;;;;;;;28.02;57.46;99678.91;6558767;27;31878;-84
2022/08/22 11:47:13;;;;;;;4.80;3.30;;;;;;;28.60;56.09;99683.66;6547382;27;32016;-89
2022/08/22 11:50:35;;;;;;;4.53;3.58;;;;;;;28.13;59.47;99673.97;6581272;27;33532;-84
2022/08/22 11:53:48;;;;;;;6.30;3.72;;;;;;;27.13;59.03;99680.13;6579520;27;34024;-84
2022/08/22 11:57:14;;;;;;;5.93;3.95;;;;;;;26.43;62.58;99679.09;6559567;27;32156;-84
2022/08/22 12:00:46;;;;;;;5.12;3.65;;;;;;;25.86;67.26;99674.69;6578583;27;33943;-84
2022/08/22 12:04:30;;;;;;;5.37;3.70;;;;;;;25.16;68.50;99678.00;6589172;27;33946;-84
2022/08/22 12:07:39;;;;;;;6.70;4.53;;;;;;;24.83;71.80;99672.22;6566398;27;33386;-85
2022/08/22 12:10:54;;;;;;;5.28;4.25;;;;;;;24.64;71.62;99666.63;6582727;27;33452;-84
2022/08/22 12:14:23;;;;;;;8.15;4.80;;;;;;;24.74;71.85;99679.47;6596606;27;34959;-87
2022/08/22 12:17:52;;;;;;;6.62;5.10;;;;;;;24.63;73.15;99676.00;6566778;27;33259;-85
2022/08/22 12:21:06;;;;;;;4.90;4.15;;;;;;;24.78;71.20;99667.59;6559606;27;32084;-84
2022/08/22 12:24:23;;;;;;;6.35;4.68;;;;;;;25.15;70.45;99676.34;6578620;27;33445;-85
2022/08/22 12:27:49;;;;;;;7.62;4.50;;;;;;;25.61;68.81;99668.38;6577583;27;33522;-85
2022/08/22 12:31:25;;;;;;;6.97;4.65;;;;;;;25.75;68.13;99672.03;6558561;27;33230;-85
2022/08/22 12:34:53;;;;;;;5.62;4.37;;;;;;;26.09;67.12;99672.97;6578199;27;33163;-85
2022/08/22 12:38:08;;;;;;;6.28;3.92;;;;;;;26.98;63.89;99663.84;6577256;27;33850;-90
2022/08/22 12:42:01;;;;;;;6.25;3.70;;;;;;;28.63;56.40;99662.81;6579046;27;33335;-85
2022/08/22 12:45:12;;;;;;;6.97;3.53;;;;;;;28.93;53.41;99652.91;6557891;27;31867;-85
2022/08/22 12:48:45;;;;;;;4.65;3.50;;;;;;;28.48;55.31;99656.53;6577639;27;33862;-85
2022/08/22 12:51:49;;;;;;;6.45;3.67;;;;;;;28.18;56.34;99654.47;6557477;27;32751;-85
2022/08/22 12:55:22;;;;;;;4.53;4.12;;;;;;;27.67;58.31;99655.56;6577453;27;33790;-86
2022/08/22 12:58:45;;;;;;;7.75;3.90;;;;;;;27.85;58.72;99651.06;6580191;27;33616;-85
2022/08/22 13:01:58;;;;;;;6.43;3.90;;;;;;;27.97;57.46;99643.87;6578635;27;34949;-90
2022/08/22 13:05:07;;;;;;;;;;;;;;;28.71;57.79;99639.91;6577765;27;33418;-85
2022/08/22 13:08:23;;;;;;;5.40;3.42;;;;;;;30.94;50.62;99639.00;6577968;27;33825;-86
2022/08/22 13:11:36;;;;;;;;;;;;;;;32.54;44.06;99639.34;6579189;27;34863;-86
2022/08/22 13:14:39;;;;;;;4.82;3.65;;;;;;;31.53;45.46;99638.28;6579290;27;33570;-86
2022/08/22 13:17:43;;;;;;;6.62;4.82;;;;;;;30.40;48.40;99630.28;6559603;27;32193;-87
2022/08/22 13:20:49;;;;;;;6.47;3.97;;;;;;;29.52;51.97;99636.03;6559979;27;32126;-86
2022/08/22 13:23:55;;;;;;;5.93;4.80;;;;;;;29.22;53.31;99651.59;6561747;27;32164;-86
2022/08/22 13:27:06;;;;;;;9.73;4.90;;;;;;;28.41;57.05;99639.53;6579154;27;35439;-84
2022/08/22 13:30:25;;;;;;;10.50;5.15;;;;;;;27.58;61.60;99658.25;6560355;27;32275;-85
2022/08/22 13:33:34;;;;;;;8.10;4.85;;;;;;;26.98;64.42;99650.84;6558318;27;33735;-85
2022/08/22 13:36:50;;;;;;;7.18;5.12;;;;;;;26.53;66.88;99657.97;6578621;27;33568;-85
2022/08/22 13:40:00;;;;;;;9.63;5.45;;;;;;;26.09;69.28;99664.72;6580754;27;33715;-86
2022/08/22 13:43:10;;;;;;;12.73;6.45;;;;;;;25.59;73.71;99672.53;6583304;27;33185;-85
2022/08/22 13:46:24;;;;;;;11.90;6.30;;;;;;;24.56;83.21;99672.72;6583208;27;33484;-85
2022/08/22 13:49:43;;;;;;;10.63;6.65;;;;;;;23.59;91.06;99692.50;6584187;27;33297;-87
2022/08/22 13:52:53;;;;;;;10.20;6.60;;;;;;;22.92;96.48;99692.62;6579410;27;33930;-84
2022/08/22 13:56:12;;;;;;;11.02;6.95;;;;;;;22.18;100.00;99700.28;6582442;27;33930;-84
2022/08/22 13:59:27;;;;;;;13.70;7.57;;;;;;;21.64;100.00;99688.84;6560991;27;31997;-83
2022/08/22 14:03:03;;;;;;;13.05;7.57;;;;;;;21.61;100.00;99683.91;6582910;27;34381;-86
2022/08/22 14:06:24;;;;;;;9.75;7.30;;;;;;;21.69;100.00;99683.41;6597580;27;34848;-86
2022/08/22 14:09:56;;;;;;;10.63;6.85;;;;;;;21.92;100.00;99677.44;6593888;27;34898;-85
2022/08/22 14:12:59;;;;;;;12.45;7.43;;;;;;;21.99;100.00;99677.19;6567003;27;32411;-87
2022/08/22 14:16:09;;;;;;;11.68;6.82;;;;;;;22.08;100.00;99677.47;6583640;27;33830;-86
2022/08/22 14:19:30;;;;;;;11.68;6.72;;;;;;;22.26;100.00;99670.66;6563967;27;31930;-87
2022/08/22 14:22:59;;;;;;;11.38;6.32;;;;;;;22.40;100.00;99672.59;6585614;27;33584;-87
2022/08/22 14:26:06;;;;;;;9.73;6.15;;;;;;;22.49;100.00;99669.31;6565906;27;32528;-87
2022/08/22 14:29:17;;;;;;;9.50;6.37;;;;;;;22.53;100.00;99668.50;6564394;27;33626;-86
2022/08/22 14:32:20;;;;;;;10.05;5.87;;;;;;;22.49;100.00;99667.41;6565124;27;32731;-87
2022/08/22 14:35:32;;;;;;;15.38;7.03;;;;;;;22.29;100.00;99667.38;6564202;27;32073;-86
2022/08/22 14:38:45;;;;;;;12.70;7.62;;;;;;;21.90;100.00;99657.69;6581974;27;33986;-86
2022/08/22 14:42:02;;;;;;;10.88;6.55;;;;;;;21.68;100.00;99655.19;6581730;27;33559;-86
2022/08/22 14:45:14;;;;;;;8.32;6.03;;;;;;;21.59;100.00;99656.78;6582236;27;33573;-88
2022/08/22 14:48:28;;;;;;;6.37;3.65;;;;;;;21.50;100.00;99675.66;6582160;27;33982;-88
2022/08/22 14:51:36;;;;;;;2.67;2.47;;;;;;;21.48;100.00;99687.97;6585811;27;34028;-88
2022/08/22 14:54:40;;;;;;;2.37;2.00;;;;;;;21.35;100.00;99683.75;6582052;27;34304;-87
2022/08/22 14:57:59;;;;;;;2.47;2.17;;;;;;;21.31;100.00;99677.16;6581006;27;34047;-87
2022/08/22 15:01:14;;;;;;;1.87;1.52;;;;;;;21.40;100.00;99667.38;6560716;27;32476;-87
2022/08/22 15:04:24;;;;;;;1.75;1.60;;;;;;;21.59;100.00;99664.19;6583981;27;34085;-87
2022/08/22 15:07:32;;;;;;;1.87;1.73;;;;;;;21.86;100.00;99675.78;6586029;27;33732;-87
2022/08/22 15:10:36;;;;;;;2.20;1.90;;;;;;;22.05;100.00;99676.09;6573931;27;31856;-87
2022/08/22 15:14:01;;;;;;;1.93;1.70;;;;;;;22.21;100.00;99671.50;6573364;27;32107;-87
2022/08/22 15:17:07;;;;;;;5.25;2.00;;;;;;;22.28;100.00;99679.47;6581214;27;34060;-87
2022/08/22 15:20:31;;;;;;;2.15;1.77;;;;;;;22.43;96.68;99690.44;6580219;27;33854;-87
2022/08/22 15:23:42;;;;;;;1.95;1.85;;;;;;;22.36;99.59;99698.94;6580241;27;34282;-87
2022/08/22 15:26:54;;;;;;;2.10;1.85;;;;;;;22.43;96.40;99693.19;6579478;27;33597;-87
2022/08/22 15:29:58;;;;;;;;;;;;;;;22.45;97.86;99698.41;6580775;27;33593;-87
2022/08/22 15:33:13;;;;;;;2.80;1.90;;;;;;;22.45;96.00;99688.25;6579924;27;33897;-88
2022/08/22 15:36:25;;;;;;;1.70;1.60;;;;;;;22.48;95.47;99692.38;6580921;27;33750;-88
2022/08/22 15:39:55;;;;;;;2.70;1.65;;;;;;;22.47;95.80;99696.22;6560843;27;32435;-88
2022/08/22 15:43:18;;;;;;;2.15;1.45;;;;;;;22.49;97.88;99694.00;6560870;27;32806;-88
2022/08/22 16:20:16;;;;;;;3.28;1.85;;;;;;;22.05;98.12;99721.88;6599271;26;20367;-88
